createdAt,value
2022-07-28T04:14:16.237Z,100277.44
2022-07-28T04:17:20.145Z,100280.06
2022-07-28T04:20:23.941Z,100277.75
2022-07-28T04:23:27.037Z,100282.94
2022-07-28T04:26:29.561Z,100271.81
2022-07-28T04:29:35.054Z,100274.03
2022-07-28T04:32:38.636Z,100273.28
2022-07-28T04:35:41.530Z,100280.75
2022-07-28T04:38:44.035Z,100285.00
2022-07-28T04:41:47.026Z,100282.75
2022-07-28T04:44:49.717Z,100281.97
2022-07-28T04:47:53.272Z,100280.25
2022-07-28T04:50:57.224Z,100276.16
2022-07-28T04:53:59.967Z,100278.44
2022-07-28T04:57:03.171Z,100286.66
2022-07-28T05:00:13.600Z,100283.00
2022-07-28T05:03:16.091Z,100289.97
2022-07-28T05:06:20.944Z,100285.28
2022-07-28T05:09:23.494Z,100286.72
2022-07-28T05:12:26.334Z,100290.25
2022-07-28T05:15:28.759Z,100288.97
2022-07-28T05:18:31.605Z,100294.50
2022-07-28T05:21:34.048Z,100307.81
2022-07-28T05:24:36.946Z,100303.12
2022-07-28T05:27:39.458Z,100310.16
2022-07-28T05:30:42.416Z,100304.22
2022-07-28T05:33:44.980Z,100312.88
2022-07-28T05:36:47.864Z,100312.34
2022-07-28T05:39:50.399Z,100316.94
2022-07-28T05:42:53.442Z,100318.87
2022-07-28T05:45:56.152Z,100322.25
2022-07-28T05:48:59.151Z,100320.69
2022-07-28T05:52:01.761Z,100327.16
2022-07-28T05:55:06.729Z,100327.34
2022-07-28T05:58:09.760Z,100340.34
2022-07-28T06:01:12.657Z,100334.12
2022-07-28T06:04:31.351Z,100328.34
2022-07-28T06:07:42.307Z,100335.00
2022-07-28T06:10:59.005Z,100344.28
2022-07-28T06:14:01.647Z,100345.94
2022-07-28T06:17:04.474Z,100354.09
2022-07-28T06:20:07.793Z,100353.22
2022-07-28T06:23:11.288Z,100353.09
2022-07-28T06:26:13.868Z,100345.37
2022-07-28T06:29:16.852Z,100354.16
2022-07-28T06:32:19.438Z,100348.34
2022-07-28T06:35:22.900Z,100361.56
2022-07-28T06:38:25.589Z,100353.31
2022-07-28T06:41:28.803Z,100358.56
2022-07-28T06:44:54.848Z,100358.19
2022-07-28T06:47:54.836Z,100360.31
2022-07-28T06:50:59.769Z,100359.59
2022-07-28T06:54:04.844Z,100367.44
2022-07-28T06:57:14.022Z,100368.56
2022-07-28T07:00:19.961Z,100375.69
2022-07-28T07:03:24.834Z,100369.88
2022-07-28T07:06:28.176Z,100364.38
2022-07-28T07:09:31.033Z,100360.34
2022-07-28T07:12:35.219Z,100359.19
2022-07-28T07:15:37.692Z,100368.50
2022-07-28T07:18:40.755Z,100362.75
2022-07-28T07:21:43.615Z,100358.09
2022-07-28T07:24:47.422Z,100363.25
2022-07-28T07:27:50.060Z,100364.38
2022-07-28T07:30:52.875Z,100359.28
2022-07-28T07:33:55.488Z,100362.84
2022-07-28T07:44:10.027Z,100367.09
2022-07-28T07:47:16.509Z,100360.62
2022-07-28T07:50:19.205Z,100367.78
2022-07-28T07:53:22.988Z,100365.34
2022-07-28T07:56:25.835Z,100363.75
2022-07-28T07:59:30.733Z,100364.00
2022-07-28T08:02:33.538Z,100358.56
2022-07-28T08:20:15.032Z,100364.84
2022-07-28T08:23:36.421Z,100360.09
2022-07-28T09:35:56.808Z,100327.12
2022-07-28T09:38:59.680Z,100331.87
2022-07-28T09:42:02.385Z,100326.88
2022-07-28T09:45:24.579Z,100318.69
2022-07-28T09:48:27.702Z,100321.19
2022-07-28T09:51:33.563Z,100323.53
2022-07-28T09:54:40.512Z,100323.25
2022-07-28T09:57:57.241Z,100317.00
2022-07-28T10:01:21.080Z,100316.66
2022-07-28T10:04:36.283Z,100315.88
2022-07-28T10:07:49.042Z,100308.66
2022-07-28T10:51:04.165Z,100280.66
2022-07-28T11:01:53.852Z,100278.59
2022-07-28T12:02:36.212Z,100247.81
2022-07-28T12:05:42.074Z,100239.78
2022-07-28T12:31:09.962Z,100225.75
2022-07-28T12:34:13.847Z,100219.28
2022-07-28T12:37:17.448Z,100224.78
2022-07-28T12:40:27.344Z,100212.41
2022-07-28T12:43:31.021Z,100213.91
2022-07-28T12:46:34.004Z,100210.19
2022-07-28T12:49:37.977Z,100213.78
2022-07-28T12:56:18.260Z,100207.41
2022-07-28T13:03:00.998Z,100207.91
2022-07-28T13:06:10.603Z,100212.59
2022-07-28T13:09:23.317Z,100210.13
2022-07-28T13:12:26.866Z,100201.22
2022-07-28T13:15:29.650Z,100207.66
2022-07-28T13:18:42.998Z,100208.91
2022-07-28T13:21:57.304Z,100200.59
2022-07-28T13:25:02.930Z,100199.56
2022-07-28T13:28:06.372Z,100194.97
2022-07-28T13:31:10.135Z,100193.63
2022-07-28T13:37:54.861Z,100189.91
2022-07-28T13:41:00.796Z,100183.91
2022-07-28T13:51:23.861Z,100182.25
2022-07-28T13:54:27.141Z,100176.44
2022-07-28T13:57:30.850Z,100173.22
2022-07-28T14:00:33.444Z,100171.50
2022-07-28T14:03:55.794Z,100180.59
2022-07-28T14:06:59.990Z,100172.09
2022-07-28T14:10:03.912Z,100168.06
2022-07-28T14:13:10.116Z,100161.53
2022-07-28T14:16:14.477Z,100169.09
2022-07-28T14:19:23.052Z,100172.03
2022-07-28T14:26:34.456Z,100165.72
2022-07-28T14:29:33.305Z,100159.88
2022-07-28T14:32:43.375Z,100165.09
2022-07-28T14:35:46.367Z,100165.91
2022-07-28T14:38:53.873Z,100166.34
2022-07-28T14:41:56.997Z,100161.88
2022-07-28T14:45:02.309Z,100160.44
2022-07-28T14:48:05.840Z,100156.41
2022-07-28T14:51:10.714Z,100158.72
2022-07-28T14:54:13.837Z,100149.66
2022-07-28T14:57:19.687Z,100152.22
2022-07-28T15:00:25.248Z,100147.47
2022-07-28T15:03:35.679Z,100145.56
2022-07-28T15:06:40.405Z,100148.87
2022-07-28T15:09:47.413Z,100136.84
2022-07-28T15:12:53.268Z,100137.78
2022-07-28T15:15:56.245Z,100139.31
